Ilyas Efendiyev — 9HES8 — position and weather

sailwx.info

Track history (hours):
 
Tides and Currents Weather Stations Pressure Air Temp Water Temp Dewpoint Dewpoint Depression Visibility Wind Speed Wind Dir Waves Ship Positions

Ilyas Efendiyev

Last reported at 2015-Sep-03 00:03 UTC. Time now 2015-Sep-04 12:25 UTC.
Position N 36°32' E 023°19'.

Length 140 m; draft 4.1 m.

Type: Cargo ship. MMSI: 215901000.

Date/timePositionNaut miles runAvg speedWind from/ knotsBaromVisibWave heightAir tempDewpointWater temp
2015-Sep-03 00:03N 36°32' E 023°19'610.2
2015-Sep-02 23:30N 36°37' E 023°23'1010.5
2015-Sep-02 22:33N 36°45' E 023°29'1110.8
2015-Sep-02 21:33N 36°55' E 023°36'1010.2
2015-Sep-02 20:33N 37°03' E 023°42'1010.0
2015-Sep-02 19:33N 37°12' E 023°49'10 9.8
2015-Sep-02 18:33N 37°20' E 023°55'318 9.3
2015-Sep-01 08:18N 40°57' E 028°55'299 6.1
2015-Aug-30 07:33N 43°52' E 034°22'1211.8
2015-Aug-30 06:33N 43°59' E 034°35'1110.6
2015-Aug-30 05:33N 44°05' E 034°47'1010.5
2015-Aug-30 04:33N 44°11' E 034°60'  
Track history (hours):
 
Tides and Currents Weather Stations Pressure Air Temp Water Temp Dewpoint Dewpoint Depression Visibility Wind Speed Wind Dir Waves Ship Positions

Ilyas Efendiyev

Last reported at 2015-Sep-03 00:03 UTC. Time now 2015-Sep-04 12:25 UTC.
Position N 36°32' E 023°19'.

Length 140 m; draft 4.1 m.

Type: Cargo ship. MMSI: 215901000.

Date/timePositionNaut miles runAvg speedWind from/ knotsBaromVisibWave heightAir tempDewpointWater temp
2015-Sep-03 00:03N 36°32' E 023°19'610.2
2015-Sep-02 23:30N 36°37' E 023°23'1010.5
2015-Sep-02 22:33N 36°45' E 023°29'1110.8
2015-Sep-02 21:33N 36°55' E 023°36'1010.2
2015-Sep-02 20:33N 37°03' E 023°42'1010.0
2015-Sep-02 19:33N 37°12' E 023°49'10 9.8
2015-Sep-02 18:33N 37°20' E 023°55'318 9.3
2015-Sep-01 08:18N 40°57' E 028°55'299 6.1
2015-Aug-30 07:33N 43°52' E 034°22'1211.8
2015-Aug-30 06:33N 43°59' E 034°35'1110.6
2015-Aug-30 05:33N 44°05' E 034°47'1010.5
2015-Aug-30 04:33N 44°11' E 034°60'  

Dump ship's entire track history